ETNN

Nörvenich Air Base

Airport
ICAO code
ETNN
Summary
ICAO Region
EUR
ICAO Territory
Location

Nörvenich, North Rhine-Westphalia

Serving
Nörvenich
Elevation
384 ft
Coordinates
50° 49' 54" N , 6° 39' 30" E
Metar
Observation
ETNN 031920Z 28012KT 9999 SCT020 BKN040 BKN060 09/06 Q1029 BLU
Station
Noervenich
Date/Time
2023-02-03 19:20:00
Wind direction
280°
Wind speed
12 kts
Lowest cloud amount
scattered clouds
Temperature
9°C
Dew point
6°C
Humidity
81%
QNH
1029 hPa
Weather condition
n/a

Nörvenich Air Base (Fliegerhorst Nörvenich) is a German Air Force air base in Germany.

Runways

Designator Length Width Surface Rops
7/25 2439 45 ASP No/No

Airport map

Aerial View

SKYbrary Partners:

Safety knowledge contributed by: